Time;durP1;ratioP1;P1;durP2;ratioP2;P2;SDS_P1;SDS_P2;PMS_P1;PMS_P2;Temp;Humidity;BMP_temperature;BMP_pressure;BME280_temperature;BME280_humidity;BME280_pressure;Samples;Min_cycle;Max_cycle;Signal;HPM_P1;HPM_P2
2022/11/07 00:02:14;;;;;;;7.00;2.20;;;12.20;91.70;;;;;;5023082;28;20028;-75
2022/11/07 00:04:40;;;;;;;6.50;2.53;;;12.20;91.00;;;;;;5026436;28;20032;-73
2022/11/07 00:07:06;;;;;;;8.88;3.60;;;12.20;90.90;;;;;;5018380;28;20029;-73
2022/11/07 00:09:33;;;;;;;9.55;2.75;;;12.20;91.50;;;;;;5017719;28;20107;-74
2022/11/07 00:11:59;;;;;;;10.40;3.00;;;12.20;91.60;;;;;;5015467;28;20025;-75
2022/11/07 00:14:25;;;;;;;8.05;3.03;;;12.20;91.70;;;;;;5019596;28;20033;-74
2022/11/07 00:16:50;;;;;;;12.02;3.83;;;12.30;91.80;;;;;;5023128;28;20026;-74
2022/11/07 00:19:18;;;;;;;8.65;2.80;;;12.20;91.90;;;;;;5020914;28;20402;-74
2022/11/07 00:21:44;;;;;;;5.93;2.45;;;12.20;91.70;;;;;;5025857;28;20025;-73
2022/11/07 00:24:11;;;;;;;7.03;2.20;;;12.20;91.00;;;;;;5019356;28;20582;-73
2022/11/07 00:26:36;;;;;;;10.40;3.97;;;12.20;91.10;;;;;;5028330;28;20030;-72
2022/11/07 00:29:03;;;;;;;9.90;3.47;;;12.20;91.50;;;;;;5014632;28;20036;-73
2022/11/07 00:31:29;;;;;;;9.85;3.35;;;12.20;91.60;;;;;;5018784;28;20041;-74
2022/11/07 00:33:56;;;;;;;9.32;3.72;;;12.20;91.80;;;;;;5017060;28;20140;-74
2022/11/07 00:36:24;;;;;;;5.65;2.42;;;12.20;91.70;;;;;;5025623;28;20025;-73
2022/11/07 00:38:50;;;;;;;9.52;3.58;;;12.30;91.30;;;;;;5023716;28;20033;-73
2022/11/07 00:41:16;;;;;;;7.22;3.65;;;12.20;91.80;;;;;;5026821;28;20365;-74
2022/11/07 00:43:42;;;;;;;10.27;3.38;;;12.30;91.90;;;;;;5016577;28;20469;-74
2022/11/07 00:46:09;;;;;;;11.07;3.10;;;12.20;92.00;;;;;;5025120;28;20021;-73
2022/11/07 00:48:35;;;;;;;10.23;3.97;;;12.30;91.40;;;;;;5014876;28;20041;-73
2022/11/07 00:51:12;;;;;;;9.60;3.20;;;12.30;91.90;;;;;;5021734;28;20025;-73
2022/11/07 00:53:38;;;;;;;7.00;1.85;;;12.20;92.40;;;;;;5025588;28;20029;-74
2022/11/07 00:56:08;;;;;;;9.43;3.40;;;12.30;91.30;;;;;;5017789;28;20045;-74
2022/11/07 00:58:38;;;;;;;9.95;3.50;;;12.30;91.70;;;;;;5009662;28;20026;-74
2022/11/07 01:01:09;;;;;;;9.82;2.85;;;12.40;91.40;;;;;;5015610;28;20104;-73
2022/11/07 01:06:24;;;;;;;10.52;3.45;;;12.40;91.90;;;;;;5024485;28;20160;-73
2022/11/07 01:08:52;;;;;;;6.95;2.58;;;12.40;91.80;;;;;;5020283;28;20518;-73
2022/11/07 01:11:18;;;;;;;10.02;3.15;;;12.30;91.50;;;;;;5026320;28;20033;-73
2022/11/07 01:13:43;;;;;;;11.80;3.83;;;12.30;91.70;;;;;;5020296;28;20030;-74
2022/11/07 01:16:09;;;;;;;9.80;3.45;;;12.30;92.20;;;;;;5027037;28;20017;-74
2022/11/07 01:18:35;;;;;;;10.10;2.30;;;12.30;92.20;;;;;;5024348;28;20030;-72
2022/11/07 01:21:08;;;;;;;11.40;2.97;;;12.30;91.70;;;;;;5024841;28;20022;-74
2022/11/07 01:23:34;;;;;;;7.97;2.80;;;12.30;91.60;;;;;;5021922;28;20057;-74
2022/11/07 01:26:07;;;;;;;8.13;2.97;;;12.30;91.60;;;;;;5020767;28;20032;-73
2022/11/07 01:28:35;;;;;;;10.85;3.00;;;12.30;91.70;;;;;;5022609;28;20168;-74
2022/11/07 01:31:06;;;;;;;10.90;4.10;;;12.30;92.00;;;;;;5022144;28;20025;-73
2022/11/07 01:33:32;;;;;;;11.98;3.53;;;12.30;92.30;;;;;;5029195;28;20039;-74
2022/11/07 01:36:10;;;;;;;11.68;3.70;;;12.30;92.10;;;;;;5026298;28;20022;-73
2022/11/07 01:38:38;;;;;;;7.25;1.92;;;12.30;92.30;;;;;;5021437;28;20136;-73
2022/11/07 01:41:20;;;;;;;8.90;2.17;;;12.30;91.80;;;;;;5018175;28;20033;-74
2022/11/07 01:44:06;;;;;;;12.45;3.90;;;12.40;91.40;;;;;;5020692;28;20018;-74
2022/11/07 01:46:33;;;;;;;6.80;3.00;;;12.40;91.50;;;;;;5020123;28;20049;-73
2022/11/07 01:49:08;;;;;;;8.88;2.75;;;12.40;91.10;;;;;;5028012;28;20569;-74
2022/11/07 01:51:42;;;;;;;12.85;3.28;;;12.50;90.40;;;;;;5017026;28;20036;-74
2022/11/07 01:54:09;;;;;;;7.68;2.40;;;12.40;91.70;;;;;;5017024;28;20040;-73
2022/11/07 01:56:37;;;;;;;9.25;3.28;;;12.40;91.60;;;;;;5015774;28;20033;-74
2022/11/07 01:59:04;;;;;;;12.57;3.58;;;12.40;91.70;;;;;;5011962;28;20064;-74
2022/11/07 02:01:30;;;;;;;7.28;2.35;;;12.50;91.60;;;;;;5018817;28;20034;-74
2022/11/07 02:03:57;;;;;;;10.52;3.05;;;12.50;91.20;;;;;;5020745;28;20380;-74
2022/11/07 02:06:36;;;;;;;9.77;2.72;;;12.50;91.10;;;;;;5011095;28;20050;-74
2022/11/07 02:09:02;;;;;;;7.30;2.22;;;12.40;91.70;;;;;;5024338;28;20030;-73
2022/11/07 02:11:28;;;;;;;12.45;3.83;;;12.40;91.10;;;;;;5021224;28;20030;-74
2022/11/07 02:13:54;;;;;;;10.25;3.30;;;12.40;91.40;;;;;;5019130;28;20014;-73
2022/11/07 02:16:20;;;;;;;12.90;3.13;;;12.30;92.20;;;;;;5014138;28;20026;-73
2022/11/07 02:18:46;;;;;;;7.25;2.60;;;12.40;92.00;;;;;;5026551;28;20041;-74
2022/11/07 02:21:27;;;;;;;11.38;2.53;;;12.40;91.40;;;;;;5020090;28;20026;-75
2022/11/07 02:23:59;;;;;;;8.40;2.90;;;12.30;92.00;;;;;;5022839;28;20051;-74
2022/11/07 02:26:26;;;;;;;8.60;2.80;;;12.30;91.50;;;;;;5020196;28;20022;-73
2022/11/07 02:28:54;;;;;;;11.40;3.40;;;12.30;91.60;;;;;;5025991;28;20049;-73
2022/11/07 02:31:20;;;;;;;8.82;2.60;;;12.30;91.70;;;;;;5014872;28;20101;-74
2022/11/07 02:33:45;;;;;;;7.40;2.53;;;12.20;92.10;;;;;;5021609;28;20109;-73
2022/11/07 02:36:16;;;;;;;15.88;3.15;;;12.20;92.00;;;;;;5026160;28;20021;-73
2022/11/07 02:38:42;;;;;;;8.68;3.05;;;12.20;92.10;;;;;;5018273;28;20032;-73
2022/11/07 02:41:15;;;;;;;10.55;3.20;;;12.20;92.60;;;;;;5019959;28;20433;-72
2022/11/07 02:43:48;;;;;;;10.30;3.75;;;12.30;92.50;;;;;;5015815;28;20064;-73
2022/11/07 02:46:15;;;;;;;8.05;2.55;;;12.20;92.40;;;;;;5017450;28;20105;-73
2022/11/07 02:48:49;;;;;;;9.40;2.55;;;12.30;91.60;;;;;;5023970;28;20037;-72
2022/11/07 02:51:16;;;;;;;8.18;2.85;;;12.30;92.00;;;;;;5027412;28;20112;-73
2022/11/07 02:53:42;;;;;;;9.88;3.17;;;12.20;91.80;;;;;;5012702;28;20037;-73
2022/11/07 02:56:08;;;;;;;11.18;3.97;;;12.30;91.20;;;;;;5027838;28;20256;-74
2022/11/07 02:58:34;;;;;;;15.63;4.63;;;12.20;91.90;;;;;;5023807;28;20492;-73
2022/11/07 03:01:01;;;;;;;11.25;2.92;;;12.20;92.40;;;;;;5026288;28;20025;-73
2022/11/07 03:03:29;;;;;;;16.85;4.63;;;12.20;92.10;;;;;;5010927;28;20025;-73
2022/11/07 03:05:55;;;;;;;10.52;3.40;;;12.20;92.30;;;;;;5017134;28;20067;-73
2022/11/07 03:08:20;;;;;;;12.23;4.00;;;12.10;92.60;;;;;;5004921;28;20034;-73
2022/11/07 03:10:46;;;;;;;12.55;2.90;;;12.20;92.40;;;;;;5014865;28;20034;-73
2022/11/07 03:13:12;;;;;;;12.07;4.43;;;12.10;92.80;;;;;;5021340;28;20098;-73
2022/11/07 03:15:37;;;;;;;13.80;4.43;;;12.10;92.90;;;;;;5009591;28;20026;-73
2022/11/07 03:18:03;;;;;;;10.98;3.65;;;12.10;92.60;;;;;;5017271;28;20053;-73
2022/11/07 03:20:28;;;;;;;14.40;4.43;;;12.10;92.90;;;;;;5020128;28;20044;-74
2022/11/07 03:22:54;;;;;;;9.70;3.05;;;12.10;92.80;;;;;;5017963;28;20042;-73
2022/11/07 03:25:20;;;;;;;11.82;3.70;;;12.10;92.60;;;;;;5017423;28;20453;-74
2022/11/07 03:27:46;;;;;;;11.57;4.22;;;12.10;92.60;;;;;;5014296;28;20029;-72
2022/11/07 03:30:12;;;;;;;16.48;4.35;;;12.10;93.00;;;;;;5024420;28;20029;-74
2022/11/07 03:32:38;;;;;;;13.18;3.65;;;12.20;93.00;;;;;;5014287;28;20108;-73
2022/11/07 03:35:04;;;;;;;11.48;3.88;;;12.20;92.90;;;;;;5015396;28;20160;-72
2022/11/07 03:37:30;;;;;;;15.00;4.05;;;12.20;92.70;;;;;;5020752;28;20061;-73
2022/11/07 03:39:55;;;;;;;9.25;2.95;;;12.20;93.10;;;;;;5018464;28;20479;-73
2022/11/07 03:42:21;;;;;;;9.10;3.63;;;12.20;92.70;;;;;;5019294;28;20707;-72
2022/11/07 03:44:47;;;;;;;14.77;4.32;;;12.20;92.80;;;;;;5026792;28;20061;-72
2022/11/07 03:47:12;;;;;;;11.85;3.25;;;12.10;93.30;;;;;;5027055;28;20025;-73
2022/11/07 03:49:38;;;;;;;13.85;3.38;;;12.20;92.90;;;;;;5017619;28;20028;-73
2022/11/07 03:52:04;;;;;;;13.30;3.33;;;12.20;93.00;;;;;;5019642;28;20046;-75
2022/11/07 03:54:30;;;;;;;9.85;3.70;;;12.20;92.60;;;;;;5030099;28;20018;-73
2022/11/07 03:56:55;;;;;;;12.05;3.67;;;12.20;93.00;;;;;;5018478;28;20049;-74
2022/11/07 03:59:21;;;;;;;9.32;3.03;;;12.20;92.30;;;;;;5015471;28;20427;-73
2022/11/07 04:01:46;;;;;;;14.20;4.63;;;12.20;92.90;;;;;;5029283;28;20060;-74
2022/11/07 04:04:12;;;;;;;15.30;4.25;;;12.20;92.60;;;;;;5025144;28;20078;-74
2022/11/07 04:06:38;;;;;;;13.68;3.75;;;12.30;92.90;;;;;;5020389;28;20487;-73
2022/11/07 04:09:04;;;;;;;14.48;4.25;;;12.30;92.80;;;;;;5023152;28;20124;-73
2022/11/07 04:17:18;;;;;;;12.27;2.65;;;12.30;92.70;;;;;;5024892;28;20446;-75
2022/11/07 04:19:44;;;;;;;16.35;3.92;;;12.30;93.10;;;;;;5014547;28;20084;-74
2022/11/07 04:22:10;;;;;;;13.95;4.22;;;12.30;93.30;;;;;;5017535;28;20667;-74
2022/11/07 04:24:36;;;;;;;14.88;3.15;;;12.30;93.40;;;;;;5027983;28;20049;-73
2022/11/07 04:29:46;;;;;;;18.52;3.10;;;12.30;93.40;;;;;;5013270;28;20117;-73
2022/11/07 04:32:11;;;;;;;14.27;3.85;;;12.40;92.70;;;;;;5016646;28;20112;-73
2022/11/07 04:34:37;;;;;;;14.45;3.42;;;12.40;92.60;;;;;;5029558;28;20053;-72
2022/11/07 04:37:03;;;;;;;13.57;3.45;;;12.40;92.20;;;;;;5020212;28;20021;-75
2022/11/07 04:39:28;;;;;;;12.20;3.13;;;12.40;92.50;;;;;;5018711;28;20041;-73
2022/11/07 04:41:55;;;;;;;15.60;3.72;;;12.40;92.50;;;;;;5025420;28;20029;-73
2022/11/07 04:44:21;;;;;;;12.93;3.47;;;12.50;92.20;;;;;;5026668;28;20088;-73
2022/11/07 04:46:47;;;;;;;18.80;3.75;;;12.50;92.40;;;;;;5010211;28;20026;-74
2022/11/07 04:49:14;;;;;;;15.93;3.63;;;12.50;92.50;;;;;;5026883;28;20029;-73
2022/11/07 04:51:43;;;;;;;13.35;3.55;;;12.50;92.30;;;;;;5014390;28;20524;-73
2022/11/07 04:54:13;;;;;;;13.85;3.75;;;12.50;92.30;;;;;;5027650;28;20370;-74
2022/11/07 04:56:39;;;;;;;15.02;2.92;;;12.50;92.40;;;;;;5012681;28;20021;-74
2022/11/07 04:59:04;;;;;;;13.55;3.05;;;12.50;92.90;;;;;;5022342;28;20381;-73
2022/11/07 05:01:30;;;;;;;18.58;3.33;;;12.60;92.10;;;;;;5017049;28;20037;-73
2022/11/07 05:03:56;;;;;;;11.55;2.63;;;12.50;92.40;;;;;;5022385;28;20034;-73
2022/11/07 05:06:22;;;;;;;14.55;3.85;;;12.60;91.80;;;;;;5016287;28;20032;-74
2022/11/07 05:08:48;;;;;;;12.10;2.80;;;12.60;92.20;;;;;;5020612;28;20075;-73
2022/11/07 05:11:13;;;;;;;13.52;3.28;;;12.60;92.30;;;;;;5017491;28;20384;-73
2022/11/07 05:13:40;;;;;;;19.02;3.97;;;12.60;92.60;;;;;;5022707;28;20022;-73
2022/11/07 05:16:12;;;;;;;15.30;4.15;;;12.50;93.00;;;;;;5014579;28;20112;-74
2022/11/07 05:18:39;;;;;;;12.60;2.42;;;12.50;93.00;;;;;;5014036;28;20076;-74
2022/11/07 05:21:05;;;;;;;16.90;5.53;;;12.60;92.70;;;;;;5027614;28;20033;-73
2022/11/07 05:23:30;;;;;;;14.95;3.30;;;12.60;92.10;;;;;;5017033;28;20080;-74
2022/11/07 05:25:56;;;;;;;13.02;3.38;;;12.60;92.60;;;;;;5026572;28;20053;-74
2022/11/07 05:28:30;;;;;;;15.52;3.22;;;12.60;91.80;;;;;;5022743;28;20030;-74
2022/11/07 05:31:01;;;;;;;15.02;4.07;;;12.60;92.40;;;;;;5025726;28;20716;-73
2022/11/07 05:33:28;;;;;;;14.13;4.50;;;12.70;92.60;;;;;;5027054;28;20029;-75
2022/11/07 05:35:54;;;;;;;16.23;2.75;;;12.70;92.70;;;;;;5014857;28;20029;-73
2022/11/07 05:38:20;;;;;;;12.18;3.10;;;12.70;92.30;;;;;;5021203;28;20043;-72
2022/11/07 05:40:45;;;;;;;10.60;3.45;;;12.60;92.40;;;;;;5026259;28;20109;-74
2022/11/07 05:43:13;;;;;;;13.05;3.83;;;12.70;92.50;;;;;;5013274;28;20581;-73
2022/11/07 05:45:40;;;;;;;14.13;2.85;;;12.70;92.30;;;;;;5023013;28;20081;-73
2022/11/07 05:48:11;;;;;;;19.38;3.30;;;12.60;92.30;;;;;;5014190;28;20026;-73
2022/11/07 05:50:37;;;;;;;16.40;4.40;;;12.60;92.10;;;;;;5027291;28;20025;-73
2022/11/07 05:53:04;;;;;;;8.45;2.78;;;12.70;91.50;;;;;;5023915;28;20129;-73
2022/11/07 05:55:30;;;;;;;21.60;3.22;;;12.70;91.20;;;;;;5020199;28;20030;-73
2022/11/07 05:57:56;;;;;;;12.77;3.22;;;12.70;91.10;;;;;;5017257;28;20580;-74
2022/11/07 06:00:23;;;;;;;13.38;2.90;;;12.70;91.30;;;;;;5020167;28;20132;-73
2022/11/07 06:02:54;;;;;;;12.07;2.67;;;12.70;91.30;;;;;;5015892;28;20034;-73
2022/11/07 06:05:19;;;;;;;14.55;3.03;;;12.60;91.90;;;;;;5024085;28;20025;-73
2022/11/07 06:07:45;;;;;;;18.85;4.68;;;12.60;92.00;;;;;;5021931;28;20091;-73
2022/11/07 06:10:11;;;;;;;21.17;3.80;;;12.60;92.30;;;;;;5011075;28;20044;-73
2022/11/07 06:12:36;;;;;;;12.80;3.28;;;12.60;92.10;;;;;;5023933;28;20104;-72
2022/11/07 06:15:02;;;;;;;10.48;3.45;;;12.60;92.10;;;;;;5019424;28;20040;-74
2022/11/07 06:17:28;;;;;;;15.05;3.22;;;12.60;91.30;;;;;;5014389;28;20519;-73
2022/11/07 06:19:53;;;;;;;12.30;2.92;;;12.60;92.10;;;;;;5015067;28;20033;-73
2022/11/07 06:22:19;;;;;;;10.65;2.20;;;12.60;91.80;;;;;;5027562;28;20079;-73
2022/11/07 06:24:44;;;;;;;16.55;3.83;;;12.60;91.40;;;;;;5020866;28;20025;-74
2022/11/07 06:27:10;;;;;;;14.02;2.78;;;12.60;92.40;;;;;;5020375;28;20391;-74
2022/11/07 06:29:36;;;;;;;16.33;3.72;;;12.60;91.30;;;;;;5016452;28;20028;-74
2022/11/07 06:32:02;;;;;;;14.20;3.80;;;12.60;91.90;;;;;;5016100;28;20026;-74
2022/11/07 06:34:27;;;;;;;19.55;3.05;;;12.60;91.60;;;;;;5012641;28;20030;-74
2022/11/07 06:36:55;;;;;;;14.77;3.53;;;12.60;92.00;;;;;;5014377;28;20026;-74
2022/11/07 06:39:21;;;;;;;19.17;2.85;;;12.60;91.50;;;;;;5014400;28;20530;-74
2022/11/07 06:41:49;;;;;;;15.68;3.72;;;12.60;92.20;;;;;;5016032;28;20694;-73
2022/11/07 06:44:16;;;;;;;10.18;2.58;;;12.60;92.00;;;;;;5017044;28;20022;-72
2022/11/07 06:46:42;;;;;;;15.07;3.00;;;12.60;92.00;;;;;;5013876;28;20095;-72
2022/11/07 06:49:09;;;;;;;12.57;2.85;;;12.60;91.80;;;;;;5020839;28;20389;-74
2022/11/07 06:51:34;;;;;;;19.35;4.28;;;12.70;91.70;;;;;;5022431;28;20075;-72
2022/11/07 06:54:00;;;;;;;11.32;2.60;;;12.70;91.90;;;;;;5021547;28;20025;-73
2022/11/07 06:56:25;;;;;;;14.10;2.30;;;12.70;91.70;;;;;;5010355;28;20026;-73
2022/11/07 06:58:51;;;;;;;12.77;3.75;;;12.70;91.20;;;;;;5022718;28;20030;-73
2022/11/07 07:01:17;;;;;;;17.13;4.25;;;12.80;91.30;;;;;;5010480;28;20030;-72
2022/11/07 07:03:43;;;;;;;12.18;2.50;;;12.70;91.90;;;;;;5022403;28;20022;-72
2022/11/07 07:06:15;;;;;;;16.90;3.53;;;12.80;91.90;;;;;;5020469;28;20056;-73
2022/11/07 07:08:41;;;;;;;11.35;2.70;;;12.70;92.30;;;;;;5028486;28;20029;-73
2022/11/07 07:11:09;;;;;;;10.30;2.85;;;12.70;91.70;;;;;;5025423;28;20848;-73
2022/11/07 07:13:35;;;;;;;15.43;2.83;;;12.80;91.60;;;;;;5025394;28;20132;-73
2022/11/07 07:16:01;;;;;;;14.20;2.53;;;12.80;91.50;;;;;;5020577;28;20117;-74
2022/11/07 07:18:28;;;;;;;13.50;3.47;;;12.80;90.30;;;;;;5018195;28;20045;-73
2022/11/07 07:21:03;;;;;;;18.00;3.50;;;12.80;90.20;;;;;;5022761;28;20034;-73
2022/11/07 07:23:29;;;;;;;18.20;4.40;;;12.80;91.30;;;;;;5019470;28;20040;-73
2022/11/07 07:25:54;;;;;;;18.90;3.65;;;12.80;91.80;;;;;;5024484;28;20034;-74
2022/11/07 07:28:21;;;;;;;12.50;2.88;;;12.90;91.30;;;;;;5021268;28;20018;-73
2022/11/07 07:30:47;;;;;;;16.58;3.33;;;12.80;91.40;;;;;;5019390;28;20120;-74
2022/11/07 07:33:12;;;;;;;15.60;3.67;;;12.80;91.90;;;;;;5020133;28;20108;-74
2022/11/07 07:35:38;;;;;;;11.38;2.50;;;12.80;92.10;;;;;;5029208;28;20033;-74
2022/11/07 07:38:03;;;;;;;14.23;3.47;;;12.90;90.80;;;;;;5020729;28;20035;-73
2022/11/07 07:40:29;;;;;;;24.20;9.23;;;12.90;91.60;;;;;;5020026;28;20099;-74
2022/11/07 07:42:55;;;;;;;18.35;3.63;;;12.90;91.70;;;;;;5019063;28;20088;-74
2022/11/07 07:45:20;;;;;;;19.42;3.80;;;12.90;91.70;;;;;;5020076;28;20024;-73
2022/11/07 07:47:46;;;;;;;11.73;3.50;;;12.90;91.60;;;;;;5018944;28;20033;-74
2022/11/07 07:50:12;;;;;;;18.50;3.83;;;13.00;91.70;;;;;;5024272;28;20117;-73
2022/11/07 07:52:38;;;;;;;13.68;3.00;;;13.00;91.90;;;;;;5022872;28;20037;-74
2022/11/07 07:55:06;;;;;;;13.27;2.78;;;13.10;91.50;;;;;;5025960;28;20398;-75
2022/11/07 07:57:37;;;;;;;14.43;4.00;;;13.10;91.10;;;;;;5023757;28;20804;-74
2022/11/07 08:00:03;;;;;;;15.10;3.42;;;13.10;92.40;;;;;;5025247;28;20061;-74
2022/11/07 08:02:29;;;;;;;15.25;3.40;;;13.00;92.50;;;;;;5029327;28;20513;-74
2022/11/07 08:04:54;;;;;;;10.45;2.70;;;13.10;91.60;;;;;;5028589;28;20520;-73
2022/11/07 08:07:20;;;;;;;8.40;2.35;;;13.20;90.80;;;;;;5027218;28;20395;-73
2022/11/07 08:09:46;;;;;;;15.57;2.90;;;13.30;90.70;;;;;;5021120;28;21512;-73
2022/11/07 08:12:11;;;;;;;18.00;2.97;;;13.30;90.40;;;;;;5024750;28;20033;-73
2022/11/07 08:14:38;;;;;;;15.30;3.88;;;13.40;90.70;;;;;;5023405;28;20395;-73
2022/11/07 08:17:04;;;;;;;15.25;3.08;;;13.40;91.30;;;;;;5030882;28;20025;-72
2022/11/07 08:19:29;;;;;;;18.88;3.28;;;13.60;90.80;;;;;;5022117;28;20511;-74
2022/11/07 08:21:55;;;;;;;15.13;3.28;;;13.60;90.80;;;;;;5028533;28;20030;-73
2022/11/07 08:24:20;;;;;;;16.58;3.65;;;13.70;90.70;;;;;;5019815;28;20049;-72
2022/11/07 08:26:46;;;;;;;13.73;2.63;;;13.90;90.00;;;;;;5025784;28;20029;-73
2022/11/07 08:29:12;;;;;;;17.10;3.38;;;14.00;90.20;;;;;;5022174;28;20018;-74
2022/11/07 08:31:37;;;;;;;17.38;4.30;;;14.00;90.30;;;;;;5023400;28;20013;-72
2022/11/07 08:34:03;;;;;;;15.27;3.42;;;14.10;89.90;;;;;;5023589;28;20163;-74
2022/11/07 08:36:28;;;;;;;12.90;3.55;;;14.10;89.80;;;;;;5027184;28;20053;-73
2022/11/07 08:38:55;;;;;;;12.05;3.85;;;14.20;90.00;;;;;;5028026;28;20037;-74
2022/11/07 08:41:21;;;;;;;12.38;3.03;;;14.30;89.20;;;;;;5024417;28;20030;-74
2022/11/07 08:43:48;;;;;;;13.38;2.85;;;14.50;88.90;;;;;;5023958;28;20845;-76
2022/11/07 08:46:14;;;;;;;11.77;2.85;;;14.70;88.80;;;;;;5022674;28;20057;-74
2022/11/07 08:48:40;;;;;;;11.73;2.72;;;14.90;88.20;;;;;;5015291;28;20054;-73
2022/11/07 08:51:06;;;;;;;14.02;2.60;;;15.00;87.10;;;;;;5016943;28;20061;-76
2022/11/07 08:53:32;;;;;;;12.77;2.78;;;15.10;85.70;;;;;;5018597;28;20038;-73
2022/11/07 08:56:07;;;;;;;14.45;3.10;;;15.10;86.00;;;;;;5015788;28;20021;-72
2022/11/07 08:58:33;;;;;;;8.55;2.35;;;15.10;85.40;;;;;;5017750;28;20485;-74
2022/11/07 09:00:59;;;;;;;8.90;2.97;;;15.00;86.30;;;;;;5015873;28;20026;-71
2022/11/07 09:03:25;;;;;;;11.43;2.33;;;15.10;86.20;;;;;;5029299;28;20140;-74
2022/11/07 09:05:51;;;;;;;10.23;2.40;;;15.00;85.90;;;;;;5025873;28;20079;-74
2022/11/07 09:08:18;;;;;;;15.07;3.78;;;14.90;86.20;;;;;;5029189;28;20486;-74
2022/11/07 09:10:43;;;;;;;11.52;2.90;;;14.80;87.60;;;;;;5022591;28;20053;-73
2022/11/07 09:13:09;;;;;;;14.15;2.95;;;14.70;86.90;;;;;;5018466;28;20041;-75
2022/11/07 09:15:35;;;;;;;13.65;3.65;;;14.60;88.30;;;;;;5028393;28;20021;-74
2022/11/07 09:18:05;;;;;;;9.93;2.50;;;14.70;88.40;;;;;;5024464;28;20439;-74
2022/11/07 09:20:31;;;;;;;;;;;14.60;88.70;;;;;;5010363;28;20502;-75
2022/11/07 09:22:58;;;;;;;13.63;2.85;;;14.60;88.40;;;;;;5017265;28;19921;-74
2022/11/07 09:25:24;;;;;;;8.30;2.10;;;14.50;89.20;;;;;;5016670;28;20080;-74
2022/11/07 09:27:53;;;;;;;10.82;2.17;;;14.60;88.20;;;;;;5018029;28;20028;-74
2022/11/07 09:30:20;;;;;;;13.13;3.20;;;14.50;90.10;;;;;;5015093;28;20084;-74
2022/11/07 09:32:49;;;;;;;12.82;2.72;;;14.50;89.90;;;;;;5019537;28;20028;-75
2022/11/07 09:35:15;;;;;;;9.00;2.10;;;14.50;90.00;;;;;;5021174;28;20021;-74
2022/11/07 09:37:42;;;;;;;12.40;2.55;;;14.40;90.00;;;;;;5019916;28;20049;-74
2022/11/07 09:40:39;;;;;;;9.60;2.53;;;14.40;90.10;;;;;;5020307;28;20112;-75
2022/11/07 09:43:17;;;;;;;15.65;3.92;;;14.50;89.90;;;;;;5019301;28;20494;-74
2022/11/07 09:46:00;;;;;;;15.18;2.92;;;14.50;89.40;;;;;;5018290;28;20482;-73
2022/11/07 09:48:35;;;;;;;10.60;2.25;;;14.50;89.20;;;;;;5018308;28;20053;-71
2022/11/07 09:51:03;;;;;;;10.07;2.20;;;14.50;89.70;;;;;;5027917;28;20079;-73
2022/11/07 09:53:37;;;;;;;13.48;2.40;;;14.50;88.30;;;;;;5027736;28;20044;-72
2022/11/07 09:56:04;;;;;;;16.08;2.88;;;14.60;88.70;;;;;;5024994;28;20438;-73
2022/11/07 09:58:37;;;;;;;20.15;4.05;;;14.60;88.90;;;;;;5024531;28;20081;-73
2022/11/07 10:01:10;;;;;;;11.50;2.53;;;14.60;90.20;;;;;;5019666;28;20037;-73
2022/11/07 10:03:37;;;;;;;17.23;3.22;;;14.60;89.30;;;;;;5021251;28;20471;-73
2022/11/07 10:06:32;;;;;;;12.70;2.58;;;14.60;89.10;;;;;;5017237;28;20029;-72
2022/11/07 10:09:05;;;;;;;9.15;2.15;;;14.60;88.50;;;;;;5013126;28;20145;-72
2022/11/07 10:11:33;;;;;;;11.57;2.38;;;14.60;88.30;;;;;;5010526;28;20025;-73
2022/11/07 10:14:07;;;;;;;13.48;3.47;;;14.60;88.30;;;;;;5014725;28;20494;-72
2022/11/07 10:17:02;;;;;;;20.35;4.00;;;14.50;90.30;;;;;;5027951;28;20025;-73
2022/11/07 10:19:47;;;;;;;14.65;2.65;;;14.60;90.30;;;;;;5027230;28;20049;-73
2022/11/07 10:22:50;;;;;;;16.75;2.65;;;14.50;90.30;;;;;;5027161;28;20045;-72
2022/11/07 10:25:22;;;;;;;16.65;3.08;;;14.60;90.40;;;;;;5026562;28;20694;-73
2022/11/07 10:28:08;;;;;;;13.30;2.80;;;14.50;90.60;;;;;;5012453;28;20033;-73
2022/11/07 10:30:34;;;;;;;15.55;3.38;;;14.50;90.10;;;;;;5017852;28;20033;-74
2022/11/07 10:33:24;;;;;;;11.82;3.10;;;14.50;90.90;;;;;;5013706;28;20034;-73
2022/11/07 10:35:56;;;;;;;16.73;2.97;;;14.50;90.50;;;;;;5016871;28;20620;-73
2022/11/07 10:38:27;;;;;;;9.68;2.72;;;14.40;90.90;;;;;;5019185;28;20025;-73
2022/11/07 10:40:53;;;;;;;17.55;3.83;;;14.40;90.90;;;;;;5026635;28;20037;-74
2022/11/07 10:43:35;;;;;;;11.07;2.40;;;14.50;90.50;;;;;;5025614;28;20029;-72
2022/11/07 10:46:22;;;;;;;11.80;3.55;;;14.50;90.90;;;;;;5023385;28;20477;-72
2022/11/07 10:48:54;;;;;;;14.95;3.15;;;14.40;91.10;;;;;;5025890;28;20045;-72
2022/11/07 10:51:19;;;;;;;14.65;3.10;;;14.50;90.40;;;;;;5027322;28;20088;-72
2022/11/07 10:53:45;;;;;;;16.80;4.53;;;14.50;90.40;;;;;;5025131;28;20116;-72
2022/11/07 10:56:12;;;;;;;11.23;3.10;;;14.50;90.50;;;;;;5024404;28;20029;-74
2022/11/07 10:58:44;;;;;;;11.98;2.88;;;14.60;90.80;;;;;;5013829;28;20042;-73
2022/11/07 11:01:10;;;;;;;16.70;3.33;;;14.60;90.10;;;;;;5021874;28;20487;-73
2022/11/07 11:03:42;;;;;;;14.20;3.42;;;14.70;89.90;;;;;;5026925;28;20029;-73
2022/11/07 11:06:20;;;;;;;13.65;3.63;;;14.70;90.30;;;;;;5027203;28;20811;-73
2022/11/07 11:08:48;;;;;;;15.35;2.60;;;14.70;90.60;;;;;;5012679;28;20040;-73
2022/11/07 11:11:15;;;;;;;12.25;3.20;;;14.70;90.20;;;;;;5023324;28;20021;-73
2022/11/07 11:13:41;;;;;;;13.07;3.22;;;14.80;90.30;;;;;;5022308;28;20077;-73
2022/11/07 11:16:12;;;;;;;10.95;3.05;;;14.80;89.60;;;;;;5016587;28;20025;-73
2022/11/07 11:18:47;;;;;;;15.18;3.38;;;14.90;88.60;;;;;;5022550;28;20060;-72
2022/11/07 11:21:18;;;;;;;14.13;2.88;;;15.00;89.20;;;;;;5025091;28;20109;-73
2022/11/07 11:23:44;;;;;;;11.95;3.85;;;15.10;88.50;;;;;;5027024;28;20071;-74
2022/11/07 11:26:38;;;;;;;16.95;3.22;;;15.00;88.70;;;;;;5021256;28;20021;-72
2022/11/07 11:29:12;;;;;;;16.27;3.20;;;15.10;88.10;;;;;;5012111;28;20071;-72
2022/11/07 11:31:50;;;;;;;11.60;2.95;;;15.00;88.00;;;;;;5014931;28;20022;-73
2022/11/07 11:34:26;;;;;;;15.85;3.45;;;15.00;87.40;;;;;;5010088;28;20036;-73
2022/11/07 11:36:57;;;;;;;17.85;2.65;;;15.00;89.00;;;;;;5016248;28;20068;-73
2022/11/07 11:39:30;;;;;;;12.45;3.50;;;15.00;88.90;;;;;;5010720;28;20037;-73
2022/11/07 11:41:57;;;;;;;12.38;2.78;;;15.00;87.40;;;;;;5012682;28;20033;-71
2022/11/07 11:44:39;;;;;;;11.82;3.13;;;15.00;88.50;;;;;;5019987;28;20022;-73
2022/11/07 11:47:35;;;;;;;9.40;2.38;;;15.00;88.70;;;;;;5018620;28;20122;-73
2022/11/07 11:50:15;;;;;;;14.70;4.15;;;15.00;88.40;;;;;;5018902;28;20033;-72
2022/11/07 11:52:41;;;;;;;13.57;4.38;;;15.00;88.50;;;;;;5026206;28;20025;-72
2022/11/07 11:55:15;;;;;;;13.07;4.00;;;15.10;87.50;;;;;;5020908;28;20025;-73
2022/11/07 11:57:47;;;;;;;12.90;2.65;;;15.10;87.80;;;;;;5016196;28;20036;-73
2022/11/07 12:00:21;;;;;;;10.75;3.38;;;15.20;87.00;;;;;;5018876;28;20026;-72
2022/11/07 12:03:05;;;;;;;9.70;2.20;;;15.30;87.40;;;;;;5013704;28;20044;-73
2022/11/07 12:06:12;;;;;;;18.05;3.53;;;15.40;86.00;;;;;;5016807;28;20068;-76
2022/11/07 12:09:11;;;;;;;13.68;3.33;;;15.30;86.80;;;;;;5022121;28;20136;-77
2022/11/07 12:11:58;;;;;;;15.68;3.53;;;15.40;86.70;;;;;;5011823;28;20029;-76
2022/11/07 12:14:33;;;;;;;20.83;4.00;;;15.30;87.90;;;;;;5019749;28;20083;-76
2022/11/07 12:17:01;;;;;;;19.00;4.25;;;15.40;86.80;;;;;;5019886;28;20500;-76
2022/11/07 12:19:49;;;;;;;10.43;2.55;;;15.40;87.40;;;;;;5024405;28;20052;-76
2022/11/07 12:22:24;;;;;;;12.05;2.72;;;15.40;86.60;;;;;;5017405;28;20033;-76
2022/11/07 12:25:16;;;;;;;17.83;3.95;;;15.50;86.50;;;;;;5015019;28;20041;-77
2022/11/07 12:28:22;;;;;;;10.23;3.00;;;15.50;85.90;;;;;;5016250;28;20022;-76
2022/11/07 12:30:50;;;;;;;10.43;2.55;;;15.50;85.90;;;;;;5013511;28;20033;-76
2022/11/07 12:33:26;;;;;;;14.93;3.33;;;15.50;86.00;;;;;;5019498;28;20025;-76
2022/11/07 12:36:00;;;;;;;13.02;3.88;;;15.50;86.40;;;;;;5018777;28;20033;-77
2022/11/07 12:38:40;;;;;;;10.80;3.15;;;15.50;86.60;;;;;;5014573;28;20042;-76
2022/11/07 12:41:25;;;;;;;14.48;3.70;;;15.60;85.80;;;;;;5013744;28;20040;-76
2022/11/07 12:44:17;;;;;;;10.63;2.80;;;15.50;86.50;;;;;;5023239;28;20032;-77
2022/11/07 12:46:53;;;;;;;17.23;3.67;;;15.50;86.10;;;;;;5015623;28;20044;-76
2022/11/07 12:49:56;;;;;;;9.88;3.00;;;15.60;85.50;;;;;;5022394;28;20029;-78
2022/11/07 12:52:24;;;;;;;18.88;2.83;;;15.60;84.40;;;;;;5009848;28;20068;-77
2022/11/07 12:54:59;;;;;;;13.25;2.92;;;15.60;85.20;;;;;;5017655;28;20034;-77
2022/11/07 12:57:29;;;;;;;17.15;2.70;;;15.50;85.90;;;;;;5015849;28;20061;-77
2022/11/07 13:00:06;;;;;;;14.38;3.05;;;15.50;86.40;;;;;;5015939;28;20034;-76
2022/11/07 13:02:51;;;;;;;10.95;2.47;;;15.60;85.50;;;;;;5013209;28;20539;-78